»·PEaware :: N9681V KSMX-KBFL

N9681V :: KSMX-KBFL

FLIGHT INFORMATION

Flight Status: Arrived
Operator: Privately registered:
United States
More flights under this callsign
Pilot: Erik E. (31329)
Aircraft: CESSNA 172 SKYHAWK
(C172)
More flights by this aircraft type
Origin: KSMX Santa Maria Pub/Capt Hancock
United States
Destination: KBFL Meadows
United States
More flights between these airports :: More routes between these airports
Route: FLW EHF
File this flight plan on PilotEdge
Remarks:
Altitude:
(Current/Filed)
5,500ft
Speed:
(Current/Filed)
110kts
Departed: 21-Nov-20 02:21 PM
Arrived: 21-Nov-20 03:11 PM
Distance/Time
Traveled:
76nm/0:50
Distance/Time
To Go:
Arrived

Flight Plot

Page will automatically refresh every two minutes.


Map Options




Map Legend


Flown Route
Filed Route
Departure Airport
Arrival Airport
Navaid (VOR, NDB)
Fix

Horizontal Profiles

Position Reports

Time Latitude Longitude Heading Altitude Ground
Speed
21-Nov-20 14:03 34.897246 -120.446884 60 265ft 0kts
21-Nov-20 14:04 34.897246 -120.446884 60 265ft 0kts
21-Nov-20 14:05 34.897246 -120.446884 60 265ft 0kts
21-Nov-20 14:06 34.897246 -120.446884 60 265ft 0kts
21-Nov-20 14:07 34.897246 -120.446884 60 265ft 0kts
21-Nov-20 14:08 34.897246 -120.446884 60 265ft 0kts
21-Nov-20 14:09 34.897246 -120.446884 60 265ft 0kts
21-Nov-20 14:10 34.897246 -120.446884 60 265ft 0kts
21-Nov-20 14:11 34.897246 -120.446884 60 265ft 0kts
21-Nov-20 14:12 34.897203 -120.446709 167 265ft 0kts
21-Nov-20 14:13 34.897130 -120.447182 227 265ft 0kts
21-Nov-20 14:14 34.897130 -120.447182 227 265ft 0kts
21-Nov-20 14:15 34.897130 -120.447182 227 265ft 0kts
21-Nov-20 14:16 34.897130 -120.447182 227 265ft 0kts
21-Nov-20 14:17 34.893571 -120.445178 182 265ft 20kts
21-Nov-20 14:17 34.893402 -120.445187 181 265ft 0kts
21-Nov-20 14:19 34.893402 -120.445187 181 265ft 0kts
21-Nov-20 14:19 34.893402 -120.445187 181 265ft 0kts
21-Nov-20 14:20 34.894137 -120.447488 317 265ft 63kts
21-Nov-20 14:22 34.910520 -120.439541 88 956ft 119kts
21-Nov-20 14:22 34.916767 -120.407052 69 1461ft 118kts
21-Nov-20 14:24 34.930910 -120.363541 67 2215ft 113kts
21-Nov-20 14:24 34.940229 -120.332834 69 2687ft 117kts
21-Nov-20 14:26 34.953454 -120.289308 71 3338ft 118kts
21-Nov-20 14:26 34.963568 -120.258267 71 3753ft 119kts
21-Nov-20 14:27 34.974297 -120.219951 70 4214ft 119kts
21-Nov-20 14:28 34.987131 -120.182381 68 4625ft 120kts
21-Nov-20 14:29 34.998393 -120.143810 70 5001ft 121kts
21-Nov-20 14:30 35.011771 -120.106059 58 5328ft 122kts
21-Nov-20 14:31 35.027530 -120.067880 72 5405ft 130kts
21-Nov-20 14:32 35.038823 -120.025493 68 5445ft 131kts
21-Nov-20 14:33 35.051502 -119.983435 73 5467ft 132kts
21-Nov-20 14:34 35.061446 -119.940433 78 5522ft 131kts
21-Nov-20 14:35 35.074929 -119.898718 55 5544ft 133kts
21-Nov-20 14:36 35.090105 -119.857843 55 5541ft 133kts
21-Nov-20 14:37 35.112523 -119.820980 49 5398ft 137kts
21-Nov-20 14:38 35.134855 -119.784038 56 5384ft 133kts
21-Nov-20 14:39 35.154642 -119.745789 57 5384ft 133kts
21-Nov-20 14:40 35.174423 -119.707450 57 5384ft 133kts
21-Nov-20 14:41 35.185549 -119.665090 81 5384ft 133kts
21-Nov-20 14:42 35.197018 -119.622082 64 5384ft 133kts
21-Nov-20 14:43 35.213745 -119.581727 64 5420ft 130kts
21-Nov-20 14:44 35.228222 -119.544097 59 5329ft 119kts
21-Nov-20 14:45 35.243704 -119.509133 64 5297ft 114kts
21-Nov-20 14:46 35.261012 -119.476029 58 5258ft 115kts
21-Nov-20 14:47 35.275404 -119.441192 48 5220ft 115kts
21-Nov-20 14:48 35.290537 -119.406795 60 5192ft 115kts
21-Nov-20 14:49 35.304898 -119.373286 50 5203ft 115kts
21-Nov-20 14:50 35.319166 -119.337769 69 5504ft 112kts
21-Nov-20 14:51 35.320965 -119.298972 80 4591ft 118kts
21-Nov-20 14:52 35.344202 -119.266996 47 3671ft 135kts
21-Nov-20 14:53 35.357614 -119.246518 56 3147ft 134kts
21-Nov-20 14:59 35.339593 -119.220393 319 1953ft 132kts
21-Nov-20 15:00 35.369118 -119.205596 38 2020ft 121kts
21-Nov-20 15:01 35.389783 -119.173403 62 1496ft 124kts
21-Nov-20 15:02 35.394944 -119.138198 172 1510ft 122kts
21-Nov-20 15:03 35.388357 -119.175332 280 1556ft 121kts
21-Nov-20 15:04 35.402737 -119.154319 76 1374ft 121kts
21-Nov-20 15:05 35.416612 -119.120256 65 1793ft 110kts
21-Nov-20 15:06 35.424910 -119.082964 88 1588ft 99kts
21-Nov-20 15:07 35.413142 -119.056816 136 1636ft 89kts
21-Nov-20 15:08 35.408307 -119.031343 12 1279ft 97kts
21-Nov-20 15:09 35.427936 -119.049105 320 661ft 75kts
21-Nov-20 15:10 35.436513 -119.057939 53 493ft 11kts
21-Nov-20 15:11 35.436167 -119.056731 137 494ft 20kts
21-Nov-20 15:12 35.429637 -119.048844 138 490ft 27kts

Navigation Log

Ident Type
Flight plan parsing failed, navigation log unavailable